aviador You're here:

DTTF Decoded Metar

GAFSA in TUNISIA
Report Time2018-01-22 11:00:00
UTC Time2018-01-22 11:59:33
Flight Rules vfr VFR
Wind250° at 04 kt
W.Decomp.*RWY 23: 3.8 kt HW 1.3 kt RCW
W.Rank250° ranks 13
Current wind is below 250° avg. (8.3)
Visibility9999 m
Phenomena:N/A
Clouds:Few 026 Hf
Expected CloudBase > 5,200 ft AGL from Temp-Dew spread
CeilingNone
Temp19°C (ISA +6)
Dew Point06°C (43% RH)
AAT16.7°C
QNH1022 hPa
Density Alt1,565 ft
Elevation1,030 ft
Report Wrong Elevation
Raw Report
METAR DTTF 221100Z 25004KT 190V300 9999 FEW026 19/06 Q1022 NOSIG=

Extra information for DTTF:More info

Metar Taf Metar & Taf Last 4 Metars F.Rules Stats Wind Profile Meteogram Temp Stats Airport Information Weather charts Add Link Nearby VenuesMetar ALERT Operation Metar Decoded Social comments